EDDHGCLA

Guest
Details From EDDH - Hamburg
To GCLA - La Palma
Flight Number -
Tags Generated
Created
Modified
Stats Distance 1,935 nm / 3,584 km
Max Altitude 0 ft / 0 m
Waypoints 7
Social Downloads 0
Likes 0
Share VATSIM

Download

Looking for another format? Having issues loading an existing format? Contact us
Advertisement - Login to hide

Notes

Generated

Route

EDDH BBL09 NOJAN BRG BUSEN BX GCLA

ID Type Via Altitude Latitude Longitude Leg Dist Tot Dist Heading (true) Name
O EDDH APT - 0 ft / 0 m 53.65441˚ 9.97521˚ - 0 nm - -
BBL09 FIX - 0 ft / 0 m 51.06182˚ 5.30193˚ 231 nm 231 nm 230° / 226° -
NOJAN FIX - 0 ft / 0 m 48.31000˚ 1.15000˚ 230 nm 462 nm 226° / 223° -
BRG NDB - 0 ft / 0 m 41.79667˚ -6.72528˚ 513 nm 976 nm 223° / 218° BRAGANCA NDB
BUSEN FIX - 0 ft / 0 m 38.54500˚ -10.00000˚ 246 nm 1222 nm 219° / 217° -
BX NDB - 0 ft / 0 m 28.60169˚ -17.75684˚ 711 nm 1934 nm 215° / 211° LA PALMA NDB
O GCLA APT - 0 ft / 0 m 28.61659˚ -17.75542˚ 0 nm 1935 nm 5° / 5° -

Altitude Profile

Advertisement - Login to hide

Weather


0- 5 10 15 20 25 30 35+ Temperature / ° C

Clouds and Precipitation
Forecast for 2018-05-22 06:00 UTC. Updated 2 hours ago

Ground ~20,000 ft ~40,000 ft Winds

EDDH

Details ICAO EDDH (HAM)
Name Hamburg
Region Germany - Civil
Timezone Europe/Berlin (UTC+2.0)
Stats Elevation 53 ft / 16 m (AMSL)
Location 53.633665° 9.985235°
Runways 2
Magnetic Variation 2.847° E

METAR

EDDH 220650Z 10007KT CAVOK 18/08 Q1016 NOSIG

Decode

TAF

TAF EDDH 220500Z 2206/2312 08005KT CAVOK BECMG 2207/2209 10010KT PROB30 TEMPO 2215/2217 06015G25KT BECMG 2217/2220 07005KT BECMG 2307/2309 07010KT

Decode

Departure Runways

ID Width Length Bearing (true) Bearing (mag) Surface Threshold Offset Overrun Length
05 151 ft / 46 m 10,647 ft / 3,245 m 50.18° 47.33° Asphalt 978 ft / 298 m 194 ft / 59 m
15 151 ft / 46 m 12,013 ft / 3,662 m 152.89° 150.04° Asphalt 0 ft / 0 m 194 ft / 59 m
23 151 ft / 46 m 10,647 ft / 3,245 m 230.22° 227.37° Asphalt 509 ft / 155 m 240 ft / 73 m
33 151 ft / 46 m 12,013 ft / 3,662 m 332.91° 330.06° Asphalt 1,463 ft / 446 m 164 ft / 50 m

GCLA

Details ICAO GCLA (SPC)
Name La Palma
Region Canary Islands
Timezone Atlantic/Canary (UTC+1.0)
Stats Elevation 107 ft / 33 m (AMSL)
Location 28.626480° -17.755613°
Runways 1
Magnetic Variation 5.470° W

METAR

GCLA 220700Z 23008KT 9999 FEW040 19/14 Q1017

Decode

TAF

TAF GCLA 220200Z 2203/2303 20005KT 9999 BKN025 TX21/2214Z TN17/2205Z TEMPO 2209/2219 DZRA TEMPO 2214/2221 03012KT

Decode

Destination Runways

ID Width Length Bearing (true) Bearing (mag) Surface Threshold Offset Overrun Length
01 148 ft / 45 m 7,240 ft / 2,207 m 359.02° 4.49° Asphalt 0 ft / 0 m 279 ft / 85 m
19 148 ft / 45 m 7,240 ft / 2,207 m 179.02° 184.49° Asphalt 0 ft / 0 m 236 ft / 72 m

Popular Alternatives